createdAt,value
2022-11-12T00:03:35.989Z,6.80
2022-11-12T00:08:54.108Z,7.33
2022-11-12T00:14:10.853Z,6.30
2022-11-12T00:19:27.361Z,6.00
2022-11-12T00:24:45.171Z,5.73
2022-11-12T00:30:02.242Z,6.23
2022-11-12T00:35:19.061Z,6.17
2022-11-12T00:40:36.833Z,6.03
2022-11-12T00:45:53.387Z,5.90
2022-11-12T00:51:10.600Z,5.90
2022-11-12T00:56:33.020Z,5.20
2022-11-12T01:01:52.099Z,5.17
2022-11-12T01:07:08.528Z,5.33
2022-11-12T01:12:26.286Z,4.30
2022-11-12T01:17:42.981Z,4.90
2022-11-12T01:22:59.445Z,5.20
2022-11-12T01:28:17.168Z,5.23
2022-11-12T01:33:33.926Z,5.30
2022-11-12T01:38:50.992Z,4.87
2022-11-12T01:44:14.921Z,4.80
2022-11-12T01:49:35.223Z,4.70
2022-11-12T01:54:54.802Z,5.30
2022-11-12T02:00:15.068Z,5.30
2022-11-12T02:05:32.676Z,5.47
2022-11-12T02:10:49.492Z,5.23
2022-11-12T02:16:09.893Z,4.63
2022-11-12T02:21:28.466Z,4.50
2022-11-12T02:26:47.890Z,4.90
2022-11-12T02:32:04.822Z,4.47
2022-11-12T02:37:22.606Z,4.53
2022-11-12T02:42:39.534Z,4.60
2022-11-12T02:47:56.059Z,5.30
2022-11-12T02:53:13.855Z,4.70
2022-11-12T02:58:30.796Z,4.40
2022-11-12T03:03:47.724Z,5.07
2022-11-12T03:09:05.525Z,4.67
2022-11-12T03:14:22.446Z,4.77
2022-11-12T03:19:39.015Z,4.53
2022-11-12T03:24:56.849Z,4.50
2022-11-12T03:30:13.975Z,5.70
2022-11-12T03:35:30.942Z,4.03
2022-11-12T03:40:49.733Z,4.70
2022-11-12T03:46:06.559Z,4.63
2022-11-12T03:51:23.104Z,4.60
2022-11-12T03:56:41.059Z,4.17
2022-11-12T04:01:57.822Z,4.73
2022-11-12T04:07:34.815Z,4.53
2022-11-12T04:13:10.479Z,4.37
2022-11-12T04:18:44.511Z,4.00
2022-11-12T04:24:01.205Z,4.00
2022-11-12T04:29:38.730Z,3.87
2022-11-12T04:34:56.606Z,4.77
2022-11-12T04:40:32.645Z,3.40
2022-11-12T04:45:56.449Z,3.83
2022-11-12T04:51:27.365Z,4.27
2022-11-12T04:56:43.908Z,4.47
2022-11-12T05:02:01.547Z,5.10
2022-11-12T05:07:18.462Z,5.20
2022-11-12T05:12:35.123Z,4.10
2022-11-12T05:17:53.349Z,4.20
2022-11-12T05:23:10.042Z,4.80
2022-11-12T05:28:26.506Z,4.63
2022-11-12T05:33:44.795Z,4.50
2022-11-12T05:39:01.577Z,4.40
2022-11-12T05:44:18.134Z,4.83
2022-11-12T05:49:36.229Z,4.83
2022-11-12T05:54:53.000Z,4.57
2022-11-12T06:00:11.102Z,4.47
2022-11-12T06:05:29.105Z,4.20
2022-11-12T06:10:50.090Z,4.90
2022-11-12T06:16:07.094Z,4.20
2022-11-12T06:21:27.474Z,4.40
2022-11-12T06:26:43.944Z,4.30
2022-11-12T06:32:00.490Z,4.50
2022-11-12T06:37:18.400Z,4.73
2022-11-12T06:42:35.498Z,4.67
2022-11-12T06:47:51.998Z,3.97
2022-11-12T06:53:09.956Z,5.00
2022-11-12T06:58:26.831Z,4.40
2022-11-12T07:03:44.751Z,4.80
2022-11-12T07:09:03.021Z,4.90
2022-11-12T07:14:19.739Z,4.90
2022-11-12T07:19:36.293Z,4.40
2022-11-12T07:24:54.120Z,5.13
2022-11-12T07:30:11.920Z,4.27
2022-11-12T07:35:28.322Z,4.03
2022-11-12T07:40:46.102Z,5.40
2022-11-12T07:46:10.126Z,5.63
2022-11-12T07:51:29.311Z,4.97
2022-11-12T07:56:47.071Z,4.93
2022-11-12T08:02:03.791Z,4.93
2022-11-12T08:07:20.483Z,4.90
2022-11-12T08:12:38.748Z,4.70
2022-11-12T08:17:55.472Z,5.60
2022-11-12T08:23:12.253Z,6.23
2022-11-12T08:28:31.894Z,5.70
2022-11-12T08:33:48.377Z,5.37
2022-11-12T08:39:05.009Z,5.50
2022-11-12T08:44:23.085Z,5.67
2022-11-12T08:49:42.570Z,6.73
2022-11-12T08:55:03.222Z,5.10
2022-11-12T09:00:21.578Z,5.17
2022-11-12T09:05:38.789Z,6.20
2022-11-12T09:10:55.645Z,5.40
2022-11-12T09:16:13.482Z,5.83
2022-11-12T09:21:30.274Z,5.50
2022-11-12T09:26:48.079Z,5.90
2022-11-12T09:32:06.394Z,6.20
2022-11-12T09:37:22.806Z,6.57
2022-11-12T09:42:39.295Z,7.83
2022-11-12T09:48:01.126Z,7.77
2022-11-12T09:53:21.710Z,8.90
2022-11-12T09:58:38.819Z,8.43
2022-11-12T10:04:04.213Z,9.33
2022-11-12T10:09:24.990Z,11.37
2022-11-12T10:14:56.791Z,12.90
2022-11-12T10:20:22.114Z,11.60
2022-11-12T10:25:39.914Z,12.07
2022-11-12T10:31:01.787Z,12.67
2022-11-12T10:36:34.674Z,12.63
2022-11-12T10:42:03.694Z,13.73
2022-11-12T10:47:24.445Z,13.17
2022-11-12T10:52:54.990Z,14.20
2022-11-12T10:58:19.652Z,13.50
2022-11-12T11:03:39.398Z,13.00
2022-11-12T11:09:16.191Z,12.43
2022-11-12T11:14:35.203Z,11.90
2022-11-12T11:19:51.969Z,10.30
2022-11-12T11:25:27.684Z,9.43
2022-11-12T11:30:53.789Z,9.37
2022-11-12T11:36:20.933Z,9.40
2022-11-12T11:41:53.573Z,7.90
2022-11-12T11:47:33.943Z,8.07
2022-11-12T11:53:16.984Z,7.90
2022-11-12T11:58:50.449Z,8.50
2022-11-12T12:04:34.159Z,8.20
2022-11-12T12:09:58.701Z,9.60
2022-11-12T12:15:48.637Z,8.83
2022-11-12T12:21:10.765Z,11.30
2022-11-12T12:26:31.903Z,11.33
2022-11-12T12:31:53.868Z,11.50
2022-11-12T12:37:18.198Z,11.60
2022-11-12T12:42:42.999Z,10.57
2022-11-12T12:48:01.637Z,11.20
2022-11-12T12:53:32.259Z,11.20
2022-11-12T12:58:50.484Z,11.60
2022-11-12T13:04:09.384Z,10.60
2022-11-12T13:09:28.457Z,10.97
2022-11-12T13:15:09.932Z,10.13
2022-11-12T13:20:40.245Z,10.17
2022-11-12T13:26:42.469Z,8.93
2022-11-12T13:32:32.460Z,10.60
2022-11-12T13:37:51.476Z,10.17
2022-11-12T13:43:20.258Z,9.40
2022-11-12T13:48:43.166Z,10.13
2022-11-12T13:53:59.920Z,10.13
2022-11-12T13:59:18.104Z,10.67
2022-11-12T14:04:36.706Z,10.80
2022-11-12T14:10:03.932Z,11.30
2022-11-12T14:15:42.573Z,10.27
2022-11-12T14:21:07.010Z,11.10
2022-11-12T14:26:37.470Z,12.00
2022-11-12T14:32:03.014Z,10.60
2022-11-12T14:37:42.629Z,11.63
2022-11-12T14:43:00.127Z,11.57
2022-11-12T14:48:18.889Z,10.23
2022-11-12T14:53:41.567Z,11.03
2022-11-12T14:58:58.606Z,9.40
2022-11-12T15:04:20.766Z,9.97
2022-11-12T15:09:39.717Z,10.60
2022-11-12T15:15:09.739Z,10.83
2022-11-12T15:20:27.591Z,10.87
2022-11-12T15:25:46.022Z,11.17
2022-11-12T15:31:06.444Z,10.80
2022-11-12T15:36:24.374Z,9.70
2022-11-12T15:41:42.343Z,10.40
2022-11-12T15:46:59.899Z,11.33
2022-11-12T15:52:16.362Z,12.90
2022-11-12T15:57:41.867Z,10.77
2022-11-12T16:03:04.170Z,10.77
2022-11-12T16:08:20.774Z,11.57
2022-11-12T16:13:38.639Z,10.70
2022-11-12T16:18:55.520Z,11.43
2022-11-12T16:24:12.116Z,11.47
2022-11-12T16:29:29.937Z,10.87
2022-11-12T16:34:46.708Z,10.47
2022-11-12T16:40:03.261Z,10.63
2022-11-12T16:45:23.370Z,11.80
2022-11-12T16:50:39.904Z,12.07
2022-11-12T16:55:58.172Z,13.10
2022-11-12T17:01:25.135Z,16.43
2022-11-12T17:06:41.954Z,15.00
2022-11-12T17:11:58.656Z,17.47
2022-11-12T17:17:16.432Z,16.50
2022-11-12T17:22:33.328Z,15.90
2022-11-12T17:27:49.873Z,15.77
2022-11-12T17:33:07.638Z,16.23
2022-11-12T17:38:24.454Z,18.67
2022-11-12T17:43:41.533Z,19.30
2022-11-12T17:48:59.757Z,18.77
2022-11-12T17:54:16.294Z,18.10
2022-11-12T17:59:33.106Z,15.80
2022-11-12T18:04:50.924Z,16.70
2022-11-12T18:10:07.902Z,17.30
2022-11-12T18:15:24.347Z,16.20
2022-11-12T18:20:42.520Z,17.80
2022-11-12T18:25:58.842Z,16.40
2022-11-12T18:31:15.575Z,17.30
2022-11-12T18:36:33.981Z,17.00
2022-11-12T18:41:51.254Z,17.93
2022-11-12T18:47:07.703Z,21.70
2022-11-12T18:52:25.833Z,19.20
2022-11-12T18:57:45.132Z,18.67
2022-11-12T19:03:01.622Z,19.07
2022-11-12T19:08:19.655Z,17.83
2022-11-12T19:13:36.639Z,21.07
2022-11-12T19:18:53.405Z,20.13
2022-11-12T19:24:11.634Z,19.50
2022-11-12T19:29:28.179Z,18.87
2022-11-12T19:34:47.197Z,18.00
2022-11-12T19:40:06.128Z,20.10
2022-11-12T19:45:22.550Z,19.20
2022-11-12T19:50:39.145Z,24.50
2022-11-12T19:56:00.617Z,21.27
2022-11-12T20:01:19.554Z,22.60
2022-11-12T20:06:37.835Z,26.03
2022-11-12T20:11:56.025Z,22.97
2022-11-12T20:17:12.880Z,26.80
2022-11-12T20:22:32.335Z,22.73
2022-11-12T20:27:50.544Z,26.87
2022-11-12T20:33:07.408Z,23.37
2022-11-12T20:38:23.963Z,23.47
2022-11-12T20:43:42.374Z,25.77
2022-11-12T20:48:59.192Z,24.67
2022-11-12T20:54:16.180Z,24.47
2022-11-12T20:59:34.276Z,24.63
2022-11-12T21:04:53.895Z,23.33
2022-11-12T21:10:10.991Z,23.97
2022-11-12T21:15:28.982Z,23.60
2022-11-12T21:20:46.405Z,24.33
2022-11-12T21:26:05.400Z,25.63
2022-11-12T21:31:24.961Z,24.50
2022-11-12T21:36:42.217Z,24.80
2022-11-12T21:41:58.719Z,22.47
2022-11-12T21:47:16.515Z,25.83
2022-11-12T21:52:36.208Z,26.00
2022-11-12T21:57:52.801Z,23.33
2022-11-12T22:03:10.665Z,26.73
2022-11-12T22:08:27.838Z,22.00
2022-11-12T22:13:45.299Z,23.43
2022-11-12T22:19:03.300Z,23.57
2022-11-12T22:24:20.096Z,25.07
2022-11-12T22:29:36.462Z,24.10
2022-11-12T22:34:54.208Z,23.50
2022-11-12T22:40:13.660Z,23.53
2022-11-12T22:45:30.333Z,21.43
2022-11-12T22:50:48.156Z,23.30
2022-11-12T22:56:06.456Z,23.27
2022-11-12T23:01:25.280Z,24.53
2022-11-12T23:06:43.531Z,21.97
2022-11-12T23:12:00.464Z,22.67
2022-11-12T23:17:17.053Z,23.13
2022-11-12T23:22:34.787Z,22.93
2022-11-12T23:27:51.657Z,22.37
2022-11-12T23:33:08.123Z,24.20
2022-11-12T23:38:26.302Z,23.67
2022-11-12T23:43:43.455Z,22.83
2022-11-12T23:49:00.082Z,21.13
2022-11-12T23:54:17.781Z,21.50
2022-11-12T23:59:34.453Z,21.90
